sensor_id;sensor_type;location;lat;lon;timestamp;P1;durP1;ratioP1;P2;durP2;ratioP2
595;SDS011;19946;49.306;11.350;2022-08-14T00:02:27;2.10;;;2.10;;
595;SDS011;19946;49.306;11.350;2022-08-14T00:05:28;2.10;;;2.10;;
595;SDS011;19946;49.306;11.350;2022-08-14T00:08:28;2.20;;;2.20;;
595;SDS011;19946;49.306;11.350;2022-08-14T00:11:30;2.10;;;2.10;;
595;SDS011;19946;49.306;11.350;2022-08-14T00:14:30;2.13;;;2.13;;
595;SDS011;19946;49.306;11.350;2022-08-14T00:17:31;1.97;;;1.97;;
595;SDS011;19946;49.306;11.350;2022-08-14T00:20:32;1.90;;;1.90;;
595;SDS011;19946;49.306;11.350;2022-08-14T00:23:35;2.20;;;2.20;;
595;SDS011;19946;49.306;11.350;2022-08-14T00:26:35;1.90;;;1.90;;
595;SDS011;19946;49.306;11.350;2022-08-14T00:29:35;2.07;;;2.07;;
595;SDS011;19946;49.306;11.350;2022-08-14T00:32:36;2.13;;;2.13;;
595;SDS011;19946;49.306;11.350;2022-08-14T00:35:37;1.90;;;1.90;;
595;SDS011;19946;49.306;11.350;2022-08-14T00:38:37;2.10;;;2.10;;
595;SDS011;19946;49.306;11.350;2022-08-14T00:41:38;2.00;;;2.00;;
595;SDS011;19946;49.306;11.350;2022-08-14T00:44:38;2.10;;;2.10;;
595;SDS011;19946;49.306;11.350;2022-08-14T00:47:42;2.20;;;2.20;;
595;SDS011;19946;49.306;11.350;2022-08-14T00:50:44;2.10;;;2.10;;
595;SDS011;19946;49.306;11.350;2022-08-14T00:53:45;2.00;;;2.00;;
595;SDS011;19946;49.306;11.350;2022-08-14T00:56:46;2.10;;;2.10;;
595;SDS011;19946;49.306;11.350;2022-08-14T00:59:48;2.20;;;2.20;;
595;SDS011;19946;49.306;11.350;2022-08-14T01:02:49;2.13;;;2.13;;
595;SDS011;19946;49.306;11.350;2022-08-14T01:05:52;2.10;;;2.10;;
595;SDS011;19946;49.306;11.350;2022-08-14T01:08:53;1.90;;;1.90;;
595;SDS011;19946;49.306;11.350;2022-08-14T01:11:54;1.90;;;1.90;;
595;SDS011;19946;49.306;11.350;2022-08-14T01:14:57;2.10;;;2.10;;
595;SDS011;19946;49.306;11.350;2022-08-14T01:17:59;1.90;;;1.90;;
595;SDS011;19946;49.306;11.350;2022-08-14T01:21:23;1.90;;;1.90;;
595;SDS011;19946;49.306;11.350;2022-08-14T01:24:46;1.90;;;1.90;;
595;SDS011;19946;49.306;11.350;2022-08-14T01:27:48;1.90;;;1.90;;
595;SDS011;19946;49.306;11.350;2022-08-14T01:30:49;2.00;;;2.00;;
595;SDS011;19946;49.306;11.350;2022-08-14T01:33:56;2.00;;;2.00;;
595;SDS011;19946;49.306;11.350;2022-08-14T01:36:58;1.90;;;1.90;;
595;SDS011;19946;49.306;11.350;2022-08-14T01:39:59;1.90;;;1.90;;
595;SDS011;19946;49.306;11.350;2022-08-14T01:43:00;2.03;;;2.03;;
595;SDS011;19946;49.306;11.350;2022-08-14T01:46:01;2.10;;;2.10;;
595;SDS011;19946;49.306;11.350;2022-08-14T01:49:04;2.00;;;2.00;;
595;SDS011;19946;49.306;11.350;2022-08-14T01:52:06;2.10;;;2.10;;
595;SDS011;19946;49.306;11.350;2022-08-14T01:55:08;1.93;;;1.93;;
595;SDS011;19946;49.306;11.350;2022-08-14T01:58:11;1.90;;;1.90;;
595;SDS011;19946;49.306;11.350;2022-08-14T02:01:18;1.90;;;1.90;;
595;SDS011;19946;49.306;11.350;2022-08-14T02:04:19;2.10;;;2.10;;
595;SDS011;19946;49.306;11.350;2022-08-14T02:07:21;2.07;;;2.07;;
595;SDS011;19946;49.306;11.350;2022-08-14T02:10:22;2.10;;;2.10;;
595;SDS011;19946;49.306;11.350;2022-08-14T02:13:22;2.00;;;2.00;;
595;SDS011;19946;49.306;11.350;2022-08-14T02:16:23;1.90;;;1.90;;
595;SDS011;19946;49.306;11.350;2022-08-14T02:19:26;2.00;;;2.00;;
595;SDS011;19946;49.306;11.350;2022-08-14T02:22:29;1.90;;;1.90;;
595;SDS011;19946;49.306;11.350;2022-08-14T02:25:30;1.60;;;1.60;;
595;SDS011;19946;49.306;11.350;2022-08-14T02:28:30;1.73;;;1.73;;
595;SDS011;19946;49.306;11.350;2022-08-14T02:31:31;1.80;;;1.80;;
595;SDS011;19946;49.306;11.350;2022-08-14T02:34:33;1.40;;;1.40;;
595;SDS011;19946;49.306;11.350;2022-08-14T02:37:35;1.40;;;1.40;;
595;SDS011;19946;49.306;11.350;2022-08-14T02:40:36;1.50;;;1.50;;
595;SDS011;19946;49.306;11.350;2022-08-14T02:43:37;1.50;;;1.50;;
595;SDS011;19946;49.306;11.350;2022-08-14T02:46:38;1.60;;;1.60;;
595;SDS011;19946;49.306;11.350;2022-08-14T02:49:41;1.40;;;1.40;;
595;SDS011;19946;49.306;11.350;2022-08-14T02:52:41;1.47;;;1.47;;
595;SDS011;19946;49.306;11.350;2022-08-14T02:55:42;1.40;;;1.40;;
595;SDS011;19946;49.306;11.350;2022-08-14T02:58:43;1.20;;;1.20;;
595;SDS011;19946;49.306;11.350;2022-08-14T03:01:48;1.30;;;1.30;;
595;SDS011;19946;49.306;11.350;2022-08-14T03:04:49;1.30;;;1.30;;
595;SDS011;19946;49.306;11.350;2022-08-14T03:07:50;1.30;;;1.30;;
595;SDS011;19946;49.306;11.350;2022-08-14T03:10:51;1.40;;;1.40;;
595;SDS011;19946;49.306;11.350;2022-08-14T03:13:52;1.30;;;1.30;;
595;SDS011;19946;49.306;11.350;2022-08-14T03:16:52;1.50;;;1.50;;
595;SDS011;19946;49.306;11.350;2022-08-14T03:19:53;1.40;;;1.40;;
595;SDS011;19946;49.306;11.350;2022-08-14T03:22:54;1.50;;;1.50;;
595;SDS011;19946;49.306;11.350;2022-08-14T03:25:58;1.40;;;1.40;;
595;SDS011;19946;49.306;11.350;2022-08-14T03:28:58;1.30;;;1.30;;
595;SDS011;19946;49.306;11.350;2022-08-14T03:32:00;1.37;;;1.37;;
595;SDS011;19946;49.306;11.350;2022-08-14T03:35:00;1.40;;;1.40;;
595;SDS011;19946;49.306;11.350;2022-08-14T03:38:05;1.33;;;1.33;;
595;SDS011;19946;49.306;11.350;2022-08-14T03:41:09;1.40;;;1.40;;
595;SDS011;19946;49.306;11.350;2022-08-14T03:44:16;1.50;;;1.50;;
595;SDS011;19946;49.306;11.350;2022-08-14T03:47:16;1.70;;;1.70;;
595;SDS011;19946;49.306;11.350;2022-08-14T03:50:17;1.50;;;1.50;;
595;SDS011;19946;49.306;11.350;2022-08-14T03:53:17;1.50;;;1.50;;
595;SDS011;19946;49.306;11.350;2022-08-14T03:56:19;1.30;;;1.30;;
595;SDS011;19946;49.306;11.350;2022-08-14T03:59:19;1.30;;;1.30;;
595;SDS011;19946;49.306;11.350;2022-08-14T04:02:20;1.20;;;1.20;;
595;SDS011;19946;49.306;11.350;2022-08-14T04:05:22;1.03;;;1.03;;
595;SDS011;19946;49.306;11.350;2022-08-14T04:08:24;1.00;;;1.00;;
595;SDS011;19946;49.306;11.350;2022-08-14T04:11:24;1.00;;;1.00;;
595;SDS011;19946;49.306;11.350;2022-08-14T04:14:24;1.00;;;1.00;;
595;SDS011;19946;49.306;11.350;2022-08-14T04:17:25;1.03;;;1.03;;
595;SDS011;19946;49.306;11.350;2022-08-14T04:20:27;0.93;;;0.93;;
595;SDS011;19946;49.306;11.350;2022-08-14T04:23:27;1.10;;;1.10;;
595;SDS011;19946;49.306;11.350;2022-08-14T04:26:28;1.10;;;1.10;;
595;SDS011;19946;49.306;11.350;2022-08-14T04:29:29;0.90;;;0.90;;
595;SDS011;19946;49.306;11.350;2022-08-14T04:32:30;1.10;;;1.10;;
595;SDS011;19946;49.306;11.350;2022-08-14T04:35:35;1.00;;;1.00;;
595;SDS011;19946;49.306;11.350;2022-08-14T04:38:35;1.10;;;1.10;;
595;SDS011;19946;49.306;11.350;2022-08-14T04:41:54;1.10;;;1.10;;
595;SDS011;19946;49.306;11.350;2022-08-14T04:45:13;1.20;;;1.20;;
595;SDS011;19946;49.306;11.350;2022-08-14T04:48:15;1.40;;;1.40;;
595;SDS011;19946;49.306;11.350;2022-08-14T04:51:18;1.40;;;1.40;;
595;SDS011;19946;49.306;11.350;2022-08-14T04:54:19;1.60;;;1.60;;
595;SDS011;19946;49.306;11.350;2022-08-14T04:57:20;1.73;;;1.73;;
595;SDS011;19946;49.306;11.350;2022-08-14T05:00:20;1.60;;;1.60;;
595;SDS011;19946;49.306;11.350;2022-08-14T05:03:23;1.57;;;1.57;;
595;SDS011;19946;49.306;11.350;2022-08-14T05:06:26;1.60;;;1.60;;
595;SDS011;19946;49.306;11.350;2022-08-14T05:09:26;1.50;;;1.50;;
595;SDS011;19946;49.306;11.350;2022-08-14T05:12:27;1.50;;;1.50;;
595;SDS011;19946;49.306;11.350;2022-08-14T05:15:29;1.40;;;1.40;;
595;SDS011;19946;49.306;11.350;2022-08-14T05:18:30;1.60;;;1.60;;
595;SDS011;19946;49.306;11.350;2022-08-14T05:21:32;1.40;;;1.40;;
595;SDS011;19946;49.306;11.350;2022-08-14T05:24:33;1.50;;;1.50;;
595;SDS011;19946;49.306;11.350;2022-08-14T05:27:34;1.80;;;1.80;;
595;SDS011;19946;49.306;11.350;2022-08-14T05:30:36;2.00;;;2.00;;
595;SDS011;19946;49.306;11.350;2022-08-14T05:33:37;2.20;;;2.20;;
595;SDS011;19946;49.306;11.350;2022-08-14T05:36:38;2.00;;;2.00;;
595;SDS011;19946;49.306;11.350;2022-08-14T05:39:39;2.00;;;2.00;;
595;SDS011;19946;49.306;11.350;2022-08-14T05:42:40;2.10;;;2.10;;
595;SDS011;19946;49.306;11.350;2022-08-14T05:45:41;2.10;;;2.10;;
595;SDS011;19946;49.306;11.350;2022-08-14T05:48:42;2.03;;;2.03;;
595;SDS011;19946;49.306;11.350;2022-08-14T05:51:42;1.87;;;1.87;;
595;SDS011;19946;49.306;11.350;2022-08-14T05:54:45;2.50;;;2.50;;
595;SDS011;19946;49.306;11.350;2022-08-14T05:57:53;2.07;;;2.07;;
595;SDS011;19946;49.306;11.350;2022-08-14T06:01:20;2.10;;;2.10;;
595;SDS011;19946;49.306;11.350;2022-08-14T06:04:20;2.20;;;2.20;;
595;SDS011;19946;49.306;11.350;2022-08-14T06:07:20;2.40;;;2.40;;
595;SDS011;19946;49.306;11.350;2022-08-14T06:10:21;2.40;;;2.40;;
595;SDS011;19946;49.306;11.350;2022-08-14T06:13:22;2.20;;;2.20;;
595;SDS011;19946;49.306;11.350;2022-08-14T06:16:22;2.30;;;2.30;;
595;SDS011;19946;49.306;11.350;2022-08-14T06:19:23;2.50;;;2.50;;
595;SDS011;19946;49.306;11.350;2022-08-14T06:22:23;2.50;;;2.50;;
595;SDS011;19946;49.306;11.350;2022-08-14T06:25:24;2.63;;;2.63;;
595;SDS011;19946;49.306;11.350;2022-08-14T06:28:25;2.50;;;2.50;;
595;SDS011;19946;49.306;11.350;2022-08-14T06:31:26;2.40;;;2.40;;
595;SDS011;19946;49.306;11.350;2022-08-14T06:34:26;2.50;;;2.50;;
595;SDS011;19946;49.306;11.350;2022-08-14T06:37:27;2.60;;;2.60;;
595;SDS011;19946;49.306;11.350;2022-08-14T06:43:29;2.60;;;2.60;;
595;SDS011;19946;49.306;11.350;2022-08-14T06:46:30;2.53;;;2.53;;
595;SDS011;19946;49.306;11.350;2022-08-14T06:49:31;2.67;;;2.67;;
595;SDS011;19946;49.306;11.350;2022-08-14T06:52:32;2.77;;;2.77;;
595;SDS011;19946;49.306;11.350;2022-08-14T06:55:32;2.53;;;2.53;;
595;SDS011;19946;49.306;11.350;2022-08-14T06:58:33;2.70;;;2.70;;
595;SDS011;19946;49.306;11.350;2022-08-14T07:01:33;3.93;;;3.93;;
595;SDS011;19946;49.306;11.350;2022-08-14T07:04:52;2.37;;;2.37;;
595;SDS011;19946;49.306;11.350;2022-08-14T07:08:12;2.70;;;2.70;;
595;SDS011;19946;49.306;11.350;2022-08-14T07:11:13;2.90;;;2.90;;
595;SDS011;19946;49.306;11.350;2022-08-14T07:14:13;2.60;;;2.60;;
595;SDS011;19946;49.306;11.350;2022-08-14T07:17:14;2.67;;;2.67;;
595;SDS011;19946;49.306;11.350;2022-08-14T07:20:14;2.80;;;2.80;;
595;SDS011;19946;49.306;11.350;2022-08-14T07:23:17;3.07;;;3.07;;
595;SDS011;19946;49.306;11.350;2022-08-14T07:26:18;2.90;;;2.90;;
595;SDS011;19946;49.306;11.350;2022-08-14T07:29:18;2.80;;;2.80;;
595;SDS011;19946;49.306;11.350;2022-08-14T07:32:21;2.67;;;2.67;;
595;SDS011;19946;49.306;11.350;2022-08-14T07:35:21;5.00;;;5.00;;
595;SDS011;19946;49.306;11.350;2022-08-14T07:38:22;5.50;;;5.50;;
595;SDS011;19946;49.306;11.350;2022-08-14T07:41:22;5.50;;;5.50;;
595;SDS011;19946;49.306;11.350;2022-08-14T07:44:23;4.70;;;4.70;;
595;SDS011;19946;49.306;11.350;2022-08-14T07:47:23;4.60;;;4.60;;
595;SDS011;19946;49.306;11.350;2022-08-14T07:50:24;5.10;;;5.10;;
595;SDS011;19946;49.306;11.350;2022-08-14T07:53:24;4.70;;;4.70;;
595;SDS011;19946;49.306;11.350;2022-08-14T07:56:24;4.80;;;4.80;;
595;SDS011;19946;49.306;11.350;2022-08-14T07:59:25;4.30;;;4.30;;
595;SDS011;19946;49.306;11.350;2022-08-14T08:02:26;4.70;;;4.70;;
595;SDS011;19946;49.306;11.350;2022-08-14T08:05:29;5.20;;;5.20;;
595;SDS011;19946;49.306;11.350;2022-08-14T08:08:30;5.20;;;5.20;;
595;SDS011;19946;49.306;11.350;2022-08-14T08:11:32;6.13;;;6.03;;
595;SDS011;19946;49.306;11.350;2022-08-14T08:14:33;6.10;;;6.00;;
595;SDS011;19946;49.306;11.350;2022-08-14T08:17:34;7.10;;;7.00;;
595;SDS011;19946;49.306;11.350;2022-08-14T08:20:38;7.10;;;7.00;;
595;SDS011;19946;49.306;11.350;2022-08-14T08:23:41;6.70;;;6.60;;
595;SDS011;19946;49.306;11.350;2022-08-14T08:26:41;7.40;;;7.30;;
595;SDS011;19946;49.306;11.350;2022-08-14T08:29:41;7.57;;;7.47;;
595;SDS011;19946;49.306;11.350;2022-08-14T08:32:42;7.30;;;7.20;;
595;SDS011;19946;49.306;11.350;2022-08-14T08:35:44;7.70;;;7.60;;
595;SDS011;19946;49.306;11.350;2022-08-14T08:38:48;7.17;;;7.07;;
595;SDS011;19946;49.306;11.350;2022-08-14T08:41:49;7.50;;;7.40;;
595;SDS011;19946;49.306;11.350;2022-08-14T08:44:53;7.50;;;7.40;;
595;SDS011;19946;49.306;11.350;2022-08-14T08:47:54;8.17;;;7.97;;
595;SDS011;19946;49.306;11.350;2022-08-14T08:50:55;7.43;;;7.33;;
595;SDS011;19946;49.306;11.350;2022-08-14T08:53:58;7.00;;;6.90;;
595;SDS011;19946;49.306;11.350;2022-08-14T08:57:10;7.10;;;7.00;;
595;SDS011;19946;49.306;11.350;2022-08-14T09:00:13;7.60;;;7.47;;
595;SDS011;19946;49.306;11.350;2022-08-14T09:03:16;7.10;;;7.00;;
595;SDS011;19946;49.306;11.350;2022-08-14T09:06:19;6.33;;;6.23;;
595;SDS011;19946;49.306;11.350;2022-08-14T09:09:20;6.23;;;6.10;;
595;SDS011;19946;49.306;11.350;2022-08-14T09:12:24;6.70;;;6.47;;
595;SDS011;19946;49.306;11.350;2022-08-14T09:15:24;6.03;;;5.93;;
595;SDS011;19946;49.306;11.350;2022-08-14T09:18:26;6.60;;;6.50;;
595;SDS011;19946;49.306;11.350;2022-08-14T09:21:27;6.10;;;6.00;;
595;SDS011;19946;49.306;11.350;2022-08-14T09:24:28;5.70;;;5.63;;
595;SDS011;19946;49.306;11.350;2022-08-14T09:27:30;5.97;;;5.83;;
595;SDS011;19946;49.306;11.350;2022-08-14T09:30:31;5.47;;;5.47;;
595;SDS011;19946;49.306;11.350;2022-08-14T09:33:46;5.73;;;5.53;;
595;SDS011;19946;49.306;11.350;2022-08-14T09:37:38;5.50;;;5.40;;
595;SDS011;19946;49.306;11.350;2022-08-14T09:44:39;5.40;;;5.40;;
595;SDS011;19946;49.306;11.350;2022-08-14T09:47:52;5.70;;;5.70;;
595;SDS011;19946;49.306;11.350;2022-08-14T09:50:55;5.37;;;5.37;;
595;SDS011;19946;49.306;11.350;2022-08-14T09:54:14;5.00;;;5.00;;
595;SDS011;19946;49.306;11.350;2022-08-14T09:57:27;5.40;;;5.40;;
595;SDS011;19946;49.306;11.350;2022-08-14T10:00:35;5.77;;;5.53;;
595;SDS011;19946;49.306;11.350;2022-08-14T10:03:51;5.33;;;5.23;;
595;SDS011;19946;49.306;11.350;2022-08-14T10:06:55;5.10;;;5.03;;
595;SDS011;19946;49.306;11.350;2022-08-14T10:09:55;5.23;;;5.13;;
595;SDS011;19946;49.306;11.350;2022-08-14T10:12:56;4.50;;;4.50;;
595;SDS011;19946;49.306;11.350;2022-08-14T10:15:57;4.53;;;4.53;;
595;SDS011;19946;49.306;11.350;2022-08-14T10:19:03;5.87;;;5.80;;
595;SDS011;19946;49.306;11.350;2022-08-14T10:22:06;4.63;;;4.50;;
595;SDS011;19946;49.306;11.350;2022-08-14T10:25:10;4.27;;;4.27;;
595;SDS011;19946;49.306;11.350;2022-08-14T10:28:13;4.43;;;4.43;;
595;SDS011;19946;49.306;11.350;2022-08-14T10:31:25;4.13;;;4.10;;
595;SDS011;19946;49.306;11.350;2022-08-14T10:34:36;3.90;;;3.87;;
595;SDS011;19946;49.306;11.350;2022-08-14T10:37:40;4.00;;;4.00;;
595;SDS011;19946;49.306;11.350;2022-08-14T10:40:48;4.07;;;4.07;;
595;SDS011;19946;49.306;11.350;2022-08-14T10:44:04;4.00;;;4.00;;
595;SDS011;19946;49.306;11.350;2022-08-14T10:47:08;4.20;;;4.20;;
595;SDS011;19946;49.306;11.350;2022-08-14T10:50:09;4.00;;;4.00;;
595;SDS011;19946;49.306;11.350;2022-08-14T10:53:09;4.00;;;4.00;;
595;SDS011;19946;49.306;11.350;2022-08-14T10:56:10;4.30;;;4.30;;
595;SDS011;19946;49.306;11.350;2022-08-14T10:59:12;3.73;;;3.73;;
595;SDS011;19946;49.306;11.350;2022-08-14T11:05:37;4.33;;;4.27;;
595;SDS011;19946;49.306;11.350;2022-08-14T11:08:40;3.30;;;3.30;;
595;SDS011;19946;49.306;11.350;2022-08-14T11:11:41;3.87;;;3.87;;
595;SDS011;19946;49.306;11.350;2022-08-14T11:14:49;3.40;;;3.40;;
595;SDS011;19946;49.306;11.350;2022-08-14T11:17:51;3.60;;;3.60;;
595;SDS011;19946;49.306;11.350;2022-08-14T11:20:54;3.70;;;3.60;;
595;SDS011;19946;49.306;11.350;2022-08-14T11:23:58;3.80;;;3.70;;
595;SDS011;19946;49.306;11.350;2022-08-14T11:27:00;3.30;;;3.30;;
595;SDS011;19946;49.306;11.350;2022-08-14T11:30:06;3.47;;;3.47;;
595;SDS011;19946;49.306;11.350;2022-08-14T11:33:12;3.30;;;3.30;;
595;SDS011;19946;49.306;11.350;2022-08-14T11:36:12;3.33;;;3.33;;
595;SDS011;19946;49.306;11.350;2022-08-14T11:39:20;3.40;;;3.40;;
595;SDS011;19946;49.306;11.350;2022-08-14T11:42:22;3.20;;;3.20;;
595;SDS011;19946;49.306;11.350;2022-08-14T11:45:24;3.17;;;3.17;;
595;SDS011;19946;49.306;11.350;2022-08-14T11:48:25;2.90;;;2.90;;
595;SDS011;19946;49.306;11.350;2022-08-14T11:51:27;3.53;;;3.47;;
595;SDS011;19946;49.306;11.350;2022-08-14T11:54:28;3.70;;;3.60;;
595;SDS011;19946;49.306;11.350;2022-08-14T11:57:29;3.60;;;3.50;;
595;SDS011;19946;49.306;11.350;2022-08-14T12:00:30;3.20;;;3.20;;
595;SDS011;19946;49.306;11.350;2022-08-14T12:09:50;3.60;;;3.50;;
595;SDS011;19946;49.306;11.350;2022-08-14T12:12:52;3.10;;;3.10;;
595;SDS011;19946;49.306;11.350;2022-08-14T12:15:56;3.23;;;3.23;;
595;SDS011;19946;49.306;11.350;2022-08-14T12:19:00;2.97;;;2.97;;
595;SDS011;19946;49.306;11.350;2022-08-14T12:22:01;3.33;;;3.33;;
595;SDS011;19946;49.306;11.350;2022-08-14T12:25:02;4.30;;;3.93;;
595;SDS011;19946;49.306;11.350;2022-08-14T12:28:09;2.90;;;2.90;;
595;SDS011;19946;49.306;11.350;2022-08-14T12:31:12;3.10;;;3.10;;
595;SDS011;19946;49.306;11.350;2022-08-14T12:34:16;2.97;;;2.97;;
595;SDS011;19946;49.306;11.350;2022-08-14T12:37:27;3.17;;;3.17;;
595;SDS011;19946;49.306;11.350;2022-08-14T12:40:28;4.03;;;3.83;;
595;SDS011;19946;49.306;11.350;2022-08-14T12:43:30;3.00;;;3.00;;
595;SDS011;19946;49.306;11.350;2022-08-14T12:46:33;3.03;;;3.03;;
595;SDS011;19946;49.306;11.350;2022-08-14T12:49:36;3.17;;;3.17;;
595;SDS011;19946;49.306;11.350;2022-08-14T12:52:38;4.23;;;4.03;;
595;SDS011;19946;49.306;11.350;2022-08-14T12:55:40;2.83;;;2.83;;
595;SDS011;19946;49.306;11.350;2022-08-14T12:58:47;3.10;;;3.00;;
595;SDS011;19946;49.306;11.350;2022-08-14T13:01:54;2.90;;;2.90;;
595;SDS011;19946;49.306;11.350;2022-08-14T13:04:56;2.80;;;2.80;;
595;SDS011;19946;49.306;11.350;2022-08-14T13:07:58;2.70;;;2.70;;
595;SDS011;19946;49.306;11.350;2022-08-14T13:11:00;3.07;;;2.97;;
595;SDS011;19946;49.306;11.350;2022-08-14T13:14:05;2.80;;;2.80;;
595;SDS011;19946;49.306;11.350;2022-08-14T13:17:05;2.70;;;2.70;;
595;SDS011;19946;49.306;11.350;2022-08-14T13:20:11;3.00;;;3.00;;
595;SDS011;19946;49.306;11.350;2022-08-14T13:23:12;2.70;;;2.70;;
595;SDS011;19946;49.306;11.350;2022-08-14T13:26:13;3.20;;;3.10;;
595;SDS011;19946;49.306;11.350;2022-08-14T13:29:15;2.60;;;2.60;;
595;SDS011;19946;49.306;11.350;2022-08-14T13:32:18;2.70;;;2.70;;
595;SDS011;19946;49.306;11.350;2022-08-14T13:35:19;3.07;;;3.07;;
595;SDS011;19946;49.306;11.350;2022-08-14T13:38:20;2.70;;;2.70;;
595;SDS011;19946;49.306;11.350;2022-08-14T13:41:21;2.93;;;2.90;;
595;SDS011;19946;49.306;11.350;2022-08-14T13:44:24;2.83;;;2.83;;
595;SDS011;19946;49.306;11.350;2022-08-14T13:47:26;2.60;;;2.60;;
595;SDS011;19946;49.306;11.350;2022-08-14T13:50:31;2.30;;;2.30;;
595;SDS011;19946;49.306;11.350;2022-08-14T13:53:34;1.80;;;1.80;;
595;SDS011;19946;49.306;11.350;2022-08-14T13:56:44;1.90;;;1.90;;
595;SDS011;19946;49.306;11.350;2022-08-14T13:59:46;2.10;;;2.10;;
595;SDS011;19946;49.306;11.350;2022-08-14T14:02:47;2.00;;;2.00;;
595;SDS011;19946;49.306;11.350;2022-08-14T14:05:48;2.83;;;2.47;;
595;SDS011;19946;49.306;11.350;2022-08-14T14:08:52;2.20;;;2.20;;
595;SDS011;19946;49.306;11.350;2022-08-14T14:11:56;2.00;;;2.00;;
595;SDS011;19946;49.306;11.350;2022-08-14T14:14:58;2.30;;;2.30;;
595;SDS011;19946;49.306;11.350;2022-08-14T14:17:59;2.40;;;2.40;;
595;SDS011;19946;49.306;11.350;2022-08-14T14:21:01;2.40;;;2.37;;
595;SDS011;19946;49.306;11.350;2022-08-14T14:24:02;2.90;;;2.80;;
595;SDS011;19946;49.306;11.350;2022-08-14T14:27:04;2.30;;;2.30;;
595;SDS011;19946;49.306;11.350;2022-08-14T14:30:05;2.00;;;2.00;;
595;SDS011;19946;49.306;11.350;2022-08-14T14:33:07;2.40;;;2.40;;
595;SDS011;19946;49.306;11.350;2022-08-14T14:36:08;2.43;;;2.43;;
595;SDS011;19946;49.306;11.350;2022-08-14T14:39:13;3.73;;;3.53;;
595;SDS011;19946;49.306;11.350;2022-08-14T14:42:16;2.73;;;2.53;;
595;SDS011;19946;49.306;11.350;2022-08-14T14:45:19;2.57;;;2.57;;
595;SDS011;19946;49.306;11.350;2022-08-14T14:48:22;2.70;;;2.70;;
595;SDS011;19946;49.306;11.350;2022-08-14T14:51:23;2.57;;;2.57;;
595;SDS011;19946;49.306;11.350;2022-08-14T14:54:24;2.60;;;2.50;;
595;SDS011;19946;49.306;11.350;2022-08-14T14:57:25;2.10;;;2.10;;
595;SDS011;19946;49.306;11.350;2022-08-14T15:00:27;2.30;;;2.30;;
595;SDS011;19946;49.306;11.350;2022-08-14T15:03:28;2.23;;;2.23;;
595;SDS011;19946;49.306;11.350;2022-08-14T15:06:28;2.33;;;2.30;;
595;SDS011;19946;49.306;11.350;2022-08-14T15:09:32;2.20;;;2.20;;
595;SDS011;19946;49.306;11.350;2022-08-14T15:12:33;2.47;;;2.37;;
595;SDS011;19946;49.306;11.350;2022-08-14T15:15:33;2.40;;;2.40;;
595;SDS011;19946;49.306;11.350;2022-08-14T15:18:35;2.80;;;2.70;;
595;SDS011;19946;49.306;11.350;2022-08-14T15:21:35;2.43;;;2.40;;
595;SDS011;19946;49.306;11.350;2022-08-14T15:24:36;2.57;;;2.57;;
595;SDS011;19946;49.306;11.350;2022-08-14T15:27:37;2.03;;;2.03;;
595;SDS011;19946;49.306;11.350;2022-08-14T15:30:42;2.47;;;2.47;;
595;SDS011;19946;49.306;11.350;2022-08-14T15:33:45;2.30;;;2.30;;
595;SDS011;19946;49.306;11.350;2022-08-14T15:37:04;2.33;;;2.33;;
595;SDS011;19946;49.306;11.350;2022-08-14T15:40:05;2.00;;;2.00;;
595;SDS011;19946;49.306;11.350;2022-08-14T15:43:07;2.37;;;2.33;;
595;SDS011;19946;49.306;11.350;2022-08-14T15:46:09;2.40;;;2.40;;
595;SDS011;19946;49.306;11.350;2022-08-14T15:49:10;2.57;;;2.53;;
595;SDS011;19946;49.306;11.350;2022-08-14T15:52:11;2.63;;;2.60;;
595;SDS011;19946;49.306;11.350;2022-08-14T15:55:12;2.40;;;2.40;;
595;SDS011;19946;49.306;11.350;2022-08-14T15:58:13;2.20;;;2.20;;
595;SDS011;19946;49.306;11.350;2022-08-14T16:01:14;2.37;;;2.30;;
595;SDS011;19946;49.306;11.350;2022-08-14T16:04:21;2.30;;;2.30;;
595;SDS011;19946;49.306;11.350;2022-08-14T16:07:22;2.30;;;2.30;;
595;SDS011;19946;49.306;11.350;2022-08-14T16:10:24;2.40;;;2.40;;
595;SDS011;19946;49.306;11.350;2022-08-14T16:13:25;2.03;;;2.03;;
595;SDS011;19946;49.306;11.350;2022-08-14T16:16:29;2.37;;;2.33;;
595;SDS011;19946;49.306;11.350;2022-08-14T16:19:30;3.10;;;2.90;;
595;SDS011;19946;49.306;11.350;2022-08-14T16:22:30;2.70;;;2.63;;
595;SDS011;19946;49.306;11.350;2022-08-14T16:25:33;2.77;;;2.67;;
595;SDS011;19946;49.306;11.350;2022-08-14T16:28:34;2.17;;;2.17;;
595;SDS011;19946;49.306;11.350;2022-08-14T16:31:35;2.30;;;2.30;;
595;SDS011;19946;49.306;11.350;2022-08-14T16:34:37;2.50;;;2.50;;
595;SDS011;19946;49.306;11.350;2022-08-14T16:37:41;2.50;;;2.50;;
595;SDS011;19946;49.306;11.350;2022-08-14T16:40:42;2.70;;;2.70;;
595;SDS011;19946;49.306;11.350;2022-08-14T16:43:44;2.80;;;2.70;;
595;SDS011;19946;49.306;11.350;2022-08-14T16:46:45;2.63;;;2.63;;
595;SDS011;19946;49.306;11.350;2022-08-14T16:49:45;2.27;;;2.20;;
595;SDS011;19946;49.306;11.350;2022-08-14T16:52:46;2.20;;;2.20;;
595;SDS011;19946;49.306;11.350;2022-08-14T16:56:07;2.27;;;2.17;;
595;SDS011;19946;49.306;11.350;2022-08-14T16:59:15;1.90;;;1.90;;
595;SDS011;19946;49.306;11.350;2022-08-14T17:02:17;1.80;;;1.80;;
595;SDS011;19946;49.306;11.350;2022-08-14T17:05:33;2.10;;;2.10;;
595;SDS011;19946;49.306;11.350;2022-08-14T17:08:39;2.30;;;2.30;;
595;SDS011;19946;49.306;11.350;2022-08-14T17:11:48;2.27;;;2.27;;
595;SDS011;19946;49.306;11.350;2022-08-14T17:14:56;2.60;;;2.60;;
595;SDS011;19946;49.306;11.350;2022-08-14T17:18:03;2.40;;;2.40;;
595;SDS011;19946;49.306;11.350;2022-08-14T17:21:16;2.60;;;2.60;;
595;SDS011;19946;49.306;11.350;2022-08-14T17:24:22;2.50;;;2.50;;
595;SDS011;19946;49.306;11.350;2022-08-14T17:27:22;2.43;;;2.43;;
595;SDS011;19946;49.306;11.350;2022-08-14T17:30:24;2.40;;;2.40;;
595;SDS011;19946;49.306;11.350;2022-08-14T17:33:31;2.10;;;2.10;;
595;SDS011;19946;49.306;11.350;2022-08-14T17:36:33;2.30;;;2.30;;
595;SDS011;19946;49.306;11.350;2022-08-14T17:39:34;2.43;;;2.43;;
595;SDS011;19946;49.306;11.350;2022-08-14T17:45:44;1.80;;;1.80;;
595;SDS011;19946;49.306;11.350;2022-08-14T17:48:44;1.90;;;1.90;;
595;SDS011;19946;49.306;11.350;2022-08-14T17:51:52;2.20;;;2.20;;
595;SDS011;19946;49.306;11.350;2022-08-14T17:55:04;2.10;;;2.10;;
595;SDS011;19946;49.306;11.350;2022-08-14T17:58:06;2.33;;;2.30;;
595;SDS011;19946;49.306;11.350;2022-08-14T18:01:06;2.00;;;2.00;;
595;SDS011;19946;49.306;11.350;2022-08-14T18:04:12;2.17;;;2.17;;
595;SDS011;19946;49.306;11.350;2022-08-14T18:07:17;2.00;;;2.00;;
595;SDS011;19946;49.306;11.350;2022-08-14T18:10:21;1.80;;;1.80;;
595;SDS011;19946;49.306;11.350;2022-08-14T18:13:22;1.87;;;1.87;;
595;SDS011;19946;49.306;11.350;2022-08-14T18:16:24;2.17;;;2.17;;
595;SDS011;19946;49.306;11.350;2022-08-14T18:19:28;1.90;;;1.90;;
595;SDS011;19946;49.306;11.350;2022-08-14T18:22:30;1.50;;;1.50;;
595;SDS011;19946;49.306;11.350;2022-08-14T18:25:34;1.60;;;1.60;;
595;SDS011;19946;49.306;11.350;2022-08-14T18:28:38;1.97;;;1.97;;
595;SDS011;19946;49.306;11.350;2022-08-14T18:31:42;1.80;;;1.80;;
595;SDS011;19946;49.306;11.350;2022-08-14T18:34:42;1.80;;;1.80;;
595;SDS011;19946;49.306;11.350;2022-08-14T18:37:48;2.13;;;2.13;;
595;SDS011;19946;49.306;11.350;2022-08-14T18:40:50;2.00;;;2.00;;
595;SDS011;19946;49.306;11.350;2022-08-14T18:43:52;2.10;;;2.10;;
595;SDS011;19946;49.306;11.350;2022-08-14T18:47:37;1.90;;;1.90;;
595;SDS011;19946;49.306;11.350;2022-08-14T18:50:14;2.20;;;2.20;;
595;SDS011;19946;49.306;11.350;2022-08-14T18:53:21;1.90;;;1.90;;
595;SDS011;19946;49.306;11.350;2022-08-14T18:59:54;1.77;;;1.77;;
595;SDS011;19946;49.306;11.350;2022-08-14T19:02:55;1.50;;;1.50;;